createdAt,value
2019-03-25T00:04:37.633Z,5.20
2019-03-25T00:09:29.415Z,5.20
2019-03-25T00:14:21.314Z,5.30
2019-03-25T00:19:13.213Z,5.40
2019-03-25T00:24:05.186Z,5.50
2019-03-25T00:28:57.344Z,5.60
2019-03-25T00:33:49.341Z,5.60
2019-03-25T00:38:41.117Z,5.60
2019-03-25T00:43:33.036Z,5.60
2019-03-25T00:48:24.870Z,5.60
2019-03-25T00:53:18.817Z,5.50
2019-03-25T00:58:12.348Z,5.50
2019-03-25T01:03:03.879Z,5.50
2019-03-25T01:07:55.909Z,5.50
2019-03-25T01:12:47.933Z,5.50
2019-03-25T01:17:39.844Z,5.40
2019-03-25T01:22:31.967Z,5.50
2019-03-25T01:27:23.682Z,5.60
2019-03-25T01:32:15.839Z,5.70
2019-03-25T01:37:07.815Z,5.70
2019-03-25T01:42:01.700Z,5.80
2019-03-25T01:46:53.194Z,5.90
2019-03-25T01:51:45.234Z,5.80
2019-03-25T01:56:37.201Z,5.80
2019-03-25T02:01:29.102Z,5.90
2019-03-25T02:06:23.171Z,5.80
2019-03-25T02:11:14.585Z,5.90
2019-03-25T02:16:06.755Z,5.90
2019-03-25T02:20:59.187Z,5.90
2019-03-25T02:25:51.233Z,6.00
2019-03-25T02:30:43.046Z,6.00
2019-03-25T02:35:35.054Z,6.10
2019-03-25T02:40:28.751Z,6.20
2019-03-25T02:45:20.655Z,6.20
2019-03-25T02:50:12.636Z,6.30
2019-03-25T02:55:06.744Z,6.40
2019-03-25T02:59:58.736Z,6.40
2019-03-25T03:04:52.802Z,6.50
2019-03-25T03:09:44.287Z,6.50
2019-03-25T03:14:36.046Z,6.40
2019-03-25T03:19:27.973Z,6.40
2019-03-25T03:24:19.823Z,6.40
2019-03-25T03:29:11.317Z,6.30
2019-03-25T03:34:03.445Z,6.40
2019-03-25T03:38:55.435Z,6.40
2019-03-25T03:43:47.612Z,6.40
2019-03-25T03:48:40.136Z,6.50
2019-03-25T03:53:31.755Z,6.50
2019-03-25T03:58:26.581Z,6.50
2019-03-25T04:03:18.068Z,6.50
2019-03-25T04:08:09.864Z,6.50
2019-03-25T04:13:01.697Z,6.50
2019-03-25T04:17:53.692Z,6.50
2019-03-25T04:22:45.777Z,6.50
2019-03-25T04:27:37.672Z,6.50
2019-03-25T04:32:31.678Z,6.40
2019-03-25T04:37:25.157Z,6.50
2019-03-25T04:42:18.912Z,6.40
2019-03-25T04:47:11.051Z,6.50
2019-03-25T04:52:02.698Z,6.50
2019-03-25T04:56:56.674Z,6.40
2019-03-25T05:01:47.901Z,6.40
2019-03-25T05:06:41.809Z,6.40
2019-03-25T05:11:35.955Z,6.40
2019-03-25T05:16:29.558Z,6.40
2019-03-25T05:21:22.970Z,6.30
2019-03-25T05:26:16.445Z,6.20
2019-03-25T05:31:09.867Z,6.10
2019-03-25T05:36:02.232Z,6.10
2019-03-25T05:40:56.273Z,6.00
2019-03-25T05:45:47.642Z,6.00
2019-03-25T05:50:41.294Z,5.90
2019-03-25T05:55:34.702Z,5.80
2019-03-25T06:00:28.090Z,5.70
2019-03-25T06:05:19.517Z,5.60
2019-03-25T06:10:13.168Z,5.50
2019-03-25T06:15:06.431Z,5.50
2019-03-25T06:20:00.798Z,5.70
2019-03-25T06:24:54.534Z,5.80
2019-03-25T06:29:48.738Z,5.80
2019-03-25T06:34:42.002Z,5.70
2019-03-25T06:39:33.393Z,5.90
2019-03-25T06:44:27.379Z,6.10
2019-03-25T06:49:20.648Z,6.40
2019-03-25T06:54:14.102Z,6.60
2019-03-25T06:59:05.677Z,6.50
2019-03-25T07:03:59.033Z,6.50
2019-03-25T07:08:50.909Z,6.80
2019-03-25T07:13:44.888Z,6.90
2019-03-25T07:18:38.403Z,6.90
2019-03-25T07:23:31.848Z,6.80
2019-03-25T07:28:25.161Z,6.90
2019-03-25T07:33:17.191Z,7.30
2019-03-25T07:38:09.251Z,7.60
2019-03-25T07:43:01.307Z,7.50
2019-03-25T07:47:56.190Z,7.50
2019-03-25T07:52:48.093Z,7.90
2019-03-25T07:57:49.149Z,8.30
2019-03-25T08:02:41.927Z,8.60
2019-03-25T08:07:35.530Z,9.00
2019-03-25T08:12:26.945Z,8.60
2019-03-25T08:17:20.807Z,8.30
2019-03-25T08:22:13.804Z,7.80
2019-03-25T08:27:05.890Z,7.60
2019-03-25T08:31:59.837Z,7.50
2019-03-25T08:36:53.052Z,7.10
2019-03-25T08:41:46.456Z,7.20
2019-03-25T08:46:37.945Z,7.10
2019-03-25T08:51:30.250Z,7.40
2019-03-25T08:56:22.443Z,7.90
2019-03-25T09:01:14.768Z,8.10
2019-03-25T09:06:06.665Z,8.10
2019-03-25T09:10:58.479Z,7.90
2019-03-25T09:15:50.273Z,7.80
2019-03-25T09:20:42.162Z,7.60
2019-03-25T09:25:34.215Z,7.70
2019-03-25T09:30:26.225Z,7.80
2019-03-25T09:35:19.297Z,7.80
2019-03-25T09:40:10.973Z,7.80
2019-03-25T09:45:03.075Z,7.60
2019-03-25T09:49:55.935Z,7.90
2019-03-25T09:54:48.588Z,8.60
2019-03-25T09:59:41.518Z,9.10
2019-03-25T10:04:34.411Z,9.70
2019-03-25T10:09:26.078Z,10.00
2019-03-25T10:14:17.158Z,9.20
2019-03-25T10:19:11.127Z,7.70
2019-03-25T10:24:03.066Z,7.40
2019-03-25T10:28:55.483Z,7.60
2019-03-25T10:33:48.015Z,7.90
2019-03-25T10:38:40.566Z,8.20
2019-03-25T10:43:32.690Z,8.60
2019-03-25T10:48:24.987Z,8.70
2019-03-25T10:53:17.439Z,8.90
2019-03-25T10:58:11.121Z,9.20
2019-03-25T11:03:03.342Z,9.50
2019-03-25T11:07:55.404Z,9.90
2019-03-25T11:12:47.548Z,9.90
2019-03-25T11:17:39.116Z,9.80
2019-03-25T11:22:31.440Z,8.20
2019-03-25T11:27:24.596Z,7.10
2019-03-25T11:32:16.345Z,6.90
2019-03-25T11:37:10.843Z,7.60
2019-03-25T11:42:02.959Z,8.10
2019-03-25T11:46:55.135Z,8.50
2019-03-25T11:51:47.554Z,8.80
2019-03-25T11:56:39.856Z,9.10
2019-03-25T12:01:32.123Z,9.00
2019-03-25T12:06:24.489Z,9.30
2019-03-25T12:11:16.476Z,9.40
2019-03-25T12:16:08.150Z,9.20
2019-03-25T12:21:00.001Z,9.00
2019-03-25T12:25:51.907Z,8.90
2019-03-25T12:30:44.063Z,9.10
2019-03-25T12:35:36.247Z,9.30
2019-03-25T12:40:29.115Z,9.80
2019-03-25T12:45:21.648Z,10.40
2019-03-25T12:50:14.053Z,10.40
2019-03-25T12:55:06.593Z,10.60
2019-03-25T12:59:59.199Z,10.70
2019-03-25T13:04:51.626Z,10.90
2019-03-25T13:09:43.691Z,11.20
2019-03-25T13:14:36.132Z,11.00
2019-03-25T13:19:28.269Z,10.50
2019-03-25T13:24:22.170Z,10.30
2019-03-25T13:29:13.403Z,10.30
2019-03-25T13:34:04.930Z,9.90
2019-03-25T13:38:58.855Z,9.40
2019-03-25T13:43:49.841Z,8.80
2019-03-25T13:48:41.386Z,8.30
2019-03-25T13:53:33.875Z,7.90
2019-03-25T13:58:25.975Z,8.00
2019-03-25T14:03:17.964Z,8.20
2019-03-25T14:08:09.830Z,8.10
2019-03-25T14:13:01.811Z,8.00
2019-03-25T14:17:53.621Z,7.90
2019-03-25T14:22:45.449Z,7.50
2019-03-25T14:27:37.383Z,7.50
2019-03-25T14:32:29.390Z,7.50
2019-03-25T14:37:22.207Z,7.80
2019-03-25T14:42:14.544Z,8.20
2019-03-25T14:47:07.022Z,8.50
2019-03-25T14:52:00.811Z,9.00
2019-03-25T14:56:52.126Z,9.00
2019-03-25T15:01:43.849Z,8.80
2019-03-25T15:06:35.681Z,8.60
2019-03-25T15:11:27.626Z,8.60
2019-03-25T15:16:20.461Z,8.80
2019-03-25T15:21:12.590Z,9.30
2019-03-25T15:26:08.794Z,9.60
2019-03-25T15:30:59.949Z,9.90
2019-03-25T15:35:52.014Z,9.80
2019-03-25T15:40:44.289Z,9.80
2019-03-25T15:45:37.115Z,9.80
2019-03-25T15:50:29.193Z,9.70
2019-03-25T15:55:21.034Z,9.50
2019-03-25T16:00:13.123Z,9.30
2019-03-25T16:05:04.901Z,9.10
2019-03-25T16:09:56.923Z,8.90
2019-03-25T16:14:48.943Z,8.90
2019-03-25T16:19:40.862Z,9.00
2019-03-25T16:24:33.712Z,9.00
2019-03-25T16:29:25.651Z,9.10
2019-03-25T16:34:17.548Z,9.10
2019-03-25T16:39:09.567Z,9.10
2019-03-25T16:44:02.006Z,9.00
2019-03-25T16:48:56.080Z,9.00
2019-03-25T16:53:47.738Z,9.00
2019-03-25T16:58:39.687Z,8.90
2019-03-25T17:03:31.897Z,8.90
2019-03-25T17:08:23.850Z,8.90
2019-03-25T17:13:17.723Z,8.90
2019-03-25T17:18:09.419Z,8.90
2019-03-25T17:23:01.257Z,8.80
2019-03-25T17:27:53.391Z,8.80
2019-03-25T17:32:45.401Z,8.70
2019-03-25T17:37:37.312Z,8.70
2019-03-25T17:42:29.087Z,8.60
2019-03-25T17:47:21.096Z,8.60
2019-03-25T17:52:12.881Z,8.50
2019-03-25T17:57:04.759Z,8.50
2019-03-25T18:01:56.628Z,8.40
2019-03-25T18:06:48.710Z,8.40
2019-03-25T18:11:42.786Z,8.30
2019-03-25T18:16:34.502Z,8.30
2019-03-25T18:21:26.866Z,8.30
2019-03-25T18:26:19.069Z,8.30
2019-03-25T18:31:11.623Z,8.30
2019-03-25T18:36:03.539Z,8.20
2019-03-25T18:40:55.717Z,8.20
2019-03-25T18:45:47.862Z,8.20
2019-03-25T18:50:40.073Z,8.20
2019-03-25T18:55:32.404Z,8.10
2019-03-25T19:00:26.273Z,8.10
2019-03-25T19:05:17.808Z,8.10
2019-03-25T19:10:09.653Z,8.10
2019-03-25T19:15:03.853Z,8.00
2019-03-25T19:19:55.073Z,8.00
2019-03-25T19:24:47.016Z,8.00
2019-03-25T19:29:39.148Z,8.00
2019-03-25T19:34:31.544Z,8.00
2019-03-25T19:39:23.459Z,7.90
2019-03-25T19:44:15.537Z,7.90
2019-03-25T19:49:07.363Z,7.90
2019-03-25T19:53:59.326Z,7.80
2019-03-25T19:58:53.195Z,7.70
2019-03-25T20:03:44.879Z,7.60
2019-03-25T20:08:36.959Z,7.50
2019-03-25T20:13:28.930Z,7.40
2019-03-25T20:18:23.558Z,7.40
2019-03-25T20:23:14.839Z,7.30
2019-03-25T20:28:06.865Z,7.30
2019-03-25T20:32:59.091Z,7.30
2019-03-25T20:37:51.669Z,7.30
2019-03-25T20:42:45.720Z,7.30
2019-03-25T20:47:38.235Z,7.30
2019-03-25T20:52:31.942Z,7.30
2019-03-25T20:57:25.369Z,7.20
2019-03-25T21:02:19.705Z,7.20
2019-03-25T21:07:12.597Z,7.20
2019-03-25T21:12:06.243Z,7.20
2019-03-25T21:16:57.803Z,7.10
2019-03-25T21:21:49.869Z,7.10
2019-03-25T21:26:43.733Z,7.10
2019-03-25T21:31:35.393Z,7.10
2019-03-25T21:36:29.738Z,7.10
2019-03-25T21:41:21.596Z,7.00
2019-03-25T21:46:13.967Z,7.00
2019-03-25T21:51:07.257Z,7.00
2019-03-25T21:55:58.859Z,7.00
2019-03-25T22:00:50.165Z,7.00
2019-03-25T22:05:41.806Z,6.90
2019-03-25T22:10:33.647Z,6.90
2019-03-25T22:15:25.682Z,6.90
2019-03-25T22:20:17.823Z,6.90
2019-03-25T22:25:09.915Z,6.80
2019-03-25T22:30:01.816Z,6.90
2019-03-25T22:34:53.676Z,6.80
2019-03-25T22:39:45.769Z,6.80
2019-03-25T22:44:37.804Z,6.80
2019-03-25T22:49:29.949Z,6.80
2019-03-25T22:54:23.876Z,6.70
2019-03-25T22:59:15.963Z,6.80
2019-03-25T23:04:07.765Z,6.80
2019-03-25T23:09:01.563Z,6.80
2019-03-25T23:13:52.940Z,6.70
2019-03-25T23:18:44.882Z,6.70
2019-03-25T23:23:36.788Z,6.70
2019-03-25T23:28:28.635Z,6.70
2019-03-25T23:33:22.412Z,6.70
2019-03-25T23:38:13.999Z,6.70
2019-03-25T23:43:05.946Z,6.70
2019-03-25T23:47:58.253Z,6.70
2019-03-25T23:52:50.116Z,6.70
2019-03-25T23:57:41.807Z,6.70
